<?xml version="1.0" encoding="UTF-8" standalone="no" ?>
<gpx xmlns="http://www.topografix.com/GPX/1/1" xmlns:xsi="http://www.w3.org/2001/XMLSchema-instance" xsi:schemaLocation="http://www.topografix.com/GPX/1/1 http://www.topografix.com/GPX/1/1/gpx.xsd" version="1.1" creator="VisuGPX - https://www.visugpx.com">
  <metadata>
    <name>Mas Soubeyran - Aygladines - Mialet </name>
    <desc><![CDATA[2017-01 - Mas Soubeyran - Paussan - Pont des Camisards - Aygladines - Mialet 

[b]album[/b] : [url]https://goo.gl/photos/5y7BKYXv6Ef9Me599[/url]
[img]https://4.bp.blogspot.com/-s7Dj9kIPMd4/WOjk7N2a-YI/AAAAAAAASGQ/UPwLrOXLeKIbjQQqlwSspU3SZ5bEPGGXQCLcB/s1600/2017-01_Soubeyran_Mialet_i.JPG[/img]
[b]Idées de randonnées dans la même région[/b]
Parcours : [url]https://www.visugpx.com/membres/24856/montagne/cevennes/[/url]
Photos : [url]https://jcvertygo.blogspot.com/p/cevennes-meridionales.html[/url]]]></desc>
  </metadata>
  <trk>
    <name><![CDATA[Mas Soubeyran - Aygladines - Mialet _1]]></name>
    <trkseg>
      <trkpt lat="44.09539" lon="3.95674">
        <ele>187.3</ele>
        <time>2017-01-14T10:40:25Z</time>
      </trkpt>
      <trkpt lat="44.09533" lon="3.95677">
        <ele>187.3</ele>
        <time>2017-01-14T10:40:30Z</time>
      </trkpt>
      <trkpt lat="44.09524" lon="3.9568">
        <ele>187.14581773159</ele>
        <time>2017-01-14T10:40:57Z</time>
      </trkpt>
      <trkpt lat="44.09524" lon="3.95665">
        <ele>187.88362936774</ele>
        <time>2017-01-14T10:41:30Z</time>
      </trkpt>
      <trkpt lat="44.09522" lon="3.95663">
        <ele>187.88362936774</ele>
        <time>2017-01-14T10:41:35Z</time>
      </trkpt>
      <trkpt lat="44.09482" lon="3.95682">
        <ele>188.32286479463</ele>
        <time>2017-01-14T10:42:22Z</time>
      </trkpt>
      <trkpt lat="44.09475" lon="3.95691">
        <ele>188.90807261296</ele>
        <time>2017-01-14T10:42:25Z</time>
      </trkpt>
      <trkpt lat="44.09448" lon="3.95705">
        <ele>189.46332379891</ele>
        <time>2017-01-14T10:42:57Z</time>
      </trkpt>
      <trkpt lat="44.09425" lon="3.95695">
        <ele>189.65002922861</ele>
        <time>2017-01-14T10:44:10Z</time>
      </trkpt>
      <trkpt lat="44.09425" lon="3.957">
        <ele>189.65002922861</ele>
        <time>2017-01-14T10:46:43Z</time>
      </trkpt>
      <trkpt lat="44.09429" lon="3.9571">
        <ele>188.91866570482</ele>
        <time>2017-01-14T10:46:43Z</time>
      </trkpt>
      <trkpt lat="44.09424" lon="3.95715">
        <ele>188.91866570482</ele>
        <time>2017-01-14T10:46:59Z</time>
      </trkpt>
      <trkpt lat="44.09415" lon="3.95718">
        <ele>188.32510550094</ele>
        <time>2017-01-14T10:47:00Z</time>
      </trkpt>
      <trkpt lat="44.0941" lon="3.9572">
        <ele>188.32510550094</ele>
        <time>2017-01-14T10:47:16Z</time>
      </trkpt>
      <trkpt lat="44.09391" lon="3.95702">
        <ele>187.31060813441</ele>
        <time>2017-01-14T10:47:46Z</time>
      </trkpt>
      <trkpt lat="44.09399" lon="3.95685">
        <ele>186.17042762718</ele>
        <time>2017-01-14T10:48:08Z</time>
      </trkpt>
      <trkpt lat="44.09401" lon="3.95675">
        <ele>186.17042762718</ele>
        <time>2017-01-14T10:48:16Z</time>
      </trkpt>
      <trkpt lat="44.09402" lon="3.9567">
        <ele>185.03741961954</ele>
        <time>2017-01-14T10:48:26Z</time>
      </trkpt>
      <trkpt lat="44.09414" lon="3.95647">
        <ele>183.81694399408</ele>
        <time>2017-01-14T10:48:34Z</time>
      </trkpt>
      <trkpt lat="44.09415" lon="3.95646">
        <ele>183.81694399408</ele>
        <time>2017-01-14T10:48:35Z</time>
      </trkpt>
      <trkpt lat="44.09417" lon="3.95639">
        <ele>183.81694399408</ele>
        <time>2017-01-14T10:48:40Z</time>
      </trkpt>
      <trkpt lat="44.09422" lon="3.95579">
        <ele>181.88081758195</ele>
        <time>2017-01-14T10:50:09Z</time>
      </trkpt>
      <trkpt lat="44.09418" lon="3.95584">
        <ele>181.88081758195</ele>
        <time>2017-01-14T10:50:10Z</time>
      </trkpt>
      <trkpt lat="44.09421" lon="3.95531">
        <ele>177.73063629498</ele>
        <time>2017-01-14T10:50:51Z</time>
      </trkpt>
      <trkpt lat="44.09427" lon="3.95507">
        <ele>173.42128510577</ele>
        <time>2017-01-14T10:51:08Z</time>
      </trkpt>
      <trkpt lat="44.09427" lon="3.95493">
        <ele>169.3760126949</ele>
        <time>2017-01-14T10:51:08Z</time>
      </trkpt>
      <trkpt lat="44.09427" lon="3.95435">
        <ele>165.47277590919</ele>
        <time>2017-01-14T10:51:41Z</time>
      </trkpt>
      <trkpt lat="44.0943" lon="3.9537">
        <ele>161.70754826307</ele>
        <time>2017-01-14T10:52:23Z</time>
      </trkpt>
      <trkpt lat="44.09429" lon="3.95357">
        <ele>158.41978309239</ele>
        <time>2017-01-14T10:52:23Z</time>
      </trkpt>
      <trkpt lat="44.09424" lon="3.95325">
        <ele>155.42707144629</ele>
        <time>2017-01-14T10:52:39Z</time>
      </trkpt>
      <trkpt lat="44.09424" lon="3.95323">
        <ele>155.42707144629</ele>
        <time>2017-01-14T10:52:40Z</time>
      </trkpt>
      <trkpt lat="44.0942" lon="3.95309">
        <ele>152.92017109478</ele>
        <time>2017-01-14T10:52:56Z</time>
      </trkpt>
      <trkpt lat="44.09417" lon="3.95296">
        <ele>150.78678338891</ele>
        <time>2017-01-14T10:52:56Z</time>
      </trkpt>
      <trkpt lat="44.09409" lon="3.95266">
        <ele>148.97143997506</ele>
        <time>2017-01-14T10:53:22Z</time>
      </trkpt>
      <trkpt lat="44.09389" lon="3.95185">
        <ele>147.77901109186</ele>
        <time>2017-01-14T10:54:07Z</time>
      </trkpt>
      <trkpt lat="44.09395" lon="3.95154">
        <ele>147.0392954772</ele>
        <time>2017-01-14T10:54:23Z</time>
      </trkpt>
      <trkpt lat="44.09403" lon="3.95034">
        <ele>146.96309979193</ele>
        <time>2017-01-14T10:55:35Z</time>
      </trkpt>
      <trkpt lat="44.09421" lon="3.94988">
        <ele>146.92715673565</ele>
        <time>2017-01-14T10:56:00Z</time>
      </trkpt>
      <trkpt lat="44.09432" lon="3.94951">
        <ele>147.25198040236</ele>
        <time>2017-01-14T10:56:34Z</time>
      </trkpt>
      <trkpt lat="44.09449" lon="3.94919">
        <ele>147.91832836721</ele>
        <time>2017-01-14T10:56:50Z</time>
      </trkpt>
      <trkpt lat="44.09455" lon="3.9491">
        <ele>147.91832836721</ele>
        <time>2017-01-14T10:56:50Z</time>
      </trkpt>
      <trkpt lat="44.09463" lon="3.94896">
        <ele>148.75697496816</ele>
        <time>2017-01-14T10:57:07Z</time>
      </trkpt>
      <trkpt lat="44.09468" lon="3.94885">
        <ele>149.58667440463</ele>
        <time>2017-01-14T10:57:07Z</time>
      </trkpt>
      <trkpt lat="44.09478" lon="3.94873">
        <ele>150.46274669099</ele>
        <time>2017-01-14T10:57:23Z</time>
      </trkpt>
      <trkpt lat="44.09521" lon="3.94817">
        <ele>151.2969190848</ele>
        <time>2017-01-14T10:58:00Z</time>
      </trkpt>
      <trkpt lat="44.09596" lon="3.9476">
        <ele>152.04793740652</ele>
        <time>2017-01-14T10:59:09Z</time>
      </trkpt>
      <trkpt lat="44.09606" lon="3.94753">
        <ele>152.82966094292</ele>
        <time>2017-01-14T10:59:09Z</time>
      </trkpt>
      <trkpt lat="44.0965" lon="3.94733">
        <ele>153.3278730295</ele>
        <time>2017-01-14T10:59:52Z</time>
      </trkpt>
      <trkpt lat="44.0966" lon="3.9473">
        <ele>153.97811876528</ele>
        <time>2017-01-14T10:59:52Z</time>
      </trkpt>
      <trkpt lat="44.09671" lon="3.94727">
        <ele>154.62491864101</ele>
        <time>2017-01-14T11:00:08Z</time>
      </trkpt>
      <trkpt lat="44.09683" lon="3.94721">
        <ele>155.39168824097</ele>
        <time>2017-01-14T11:00:08Z</time>
      </trkpt>
      <trkpt lat="44.09701" lon="3.9472">
        <ele>156.06459289779</ele>
        <time>2017-01-14T11:00:33Z</time>
      </trkpt>
      <trkpt lat="44.09712" lon="3.94717">
        <ele>156.7156048718</ele>
        <time>2017-01-14T11:00:34Z</time>
      </trkpt>
      <trkpt lat="44.09784" lon="3.94708">
        <ele>157.32583401222</ele>
        <time>2017-01-14T11:01:32Z</time>
      </trkpt>
      <trkpt lat="44.09809" lon="3.94655">
        <ele>157.84838531891</ele>
        <time>2017-01-14T11:02:02Z</time>
      </trkpt>
      <trkpt lat="44.09825" lon="3.94614">
        <ele>158.21004337214</ele>
        <time>2017-01-14T11:02:40Z</time>
      </trkpt>
      <trkpt lat="44.09836" lon="3.94597">
        <ele>158.60974567177</ele>
        <time>2017-01-14T11:02:57Z</time>
      </trkpt>
      <trkpt lat="44.09856" lon="3.94569">
        <ele>159.29480635843</ele>
        <time>2017-01-14T11:03:15Z</time>
      </trkpt>
      <trkpt lat="44.09904" lon="3.94536">
        <ele>160.51129648831</ele>
        <time>2017-01-14T11:04:00Z</time>
      </trkpt>
      <trkpt lat="44.09924" lon="3.94531">
        <ele>161.90168162115</ele>
        <time>2017-01-14T11:04:14Z</time>
      </trkpt>
      <trkpt lat="44.09951" lon="3.94532">
        <ele>164.43966548819</ele>
        <time>2017-01-14T11:04:40Z</time>
      </trkpt>
      <trkpt lat="44.09978" lon="3.94537">
        <ele>168.00175359721</ele>
        <time>2017-01-14T11:05:01Z</time>
      </trkpt>
      <trkpt lat="44.09988" lon="3.9454">
        <ele>171.62256025853</ele>
        <time>2017-01-14T11:05:08Z</time>
      </trkpt>
      <trkpt lat="44.10068" lon="3.94537">
        <ele>172.59550026954</ele>
        <time>2017-01-14T11:06:00Z</time>
      </trkpt>
      <trkpt lat="44.10121" lon="3.94529">
        <ele>173.92663513786</ele>
        <time>2017-01-14T11:06:45Z</time>
      </trkpt>
      <trkpt lat="44.10124" lon="3.94522">
        <ele>173.92663513786</ele>
        <time>2017-01-14T11:06:50Z</time>
      </trkpt>
      <trkpt lat="44.10131" lon="3.94514">
        <ele>175.19162747051</ele>
        <time>2017-01-14T11:06:55Z</time>
      </trkpt>
      <trkpt lat="44.10134" lon="3.94508">
        <ele>175.19162747051</ele>
        <time>2017-01-14T11:07:00Z</time>
      </trkpt>
      <trkpt lat="44.10138" lon="3.94505">
        <ele>176.37682669943</ele>
        <time>2017-01-14T11:07:05Z</time>
      </trkpt>
      <trkpt lat="44.10171" lon="3.9451">
        <ele>177.09398655792</ele>
        <time>2017-01-14T11:07:41Z</time>
      </trkpt>
      <trkpt lat="44.10174" lon="3.94514">
        <ele>177.09398655792</ele>
        <time>2017-01-14T11:07:41Z</time>
      </trkpt>
      <trkpt lat="44.10183" lon="3.94521">
        <ele>177.43941897852</ele>
        <time>2017-01-14T11:07:49Z</time>
      </trkpt>
      <trkpt lat="44.10245" lon="3.94536">
        <ele>176.94824497438</ele>
        <time>2017-01-14T11:08:35Z</time>
      </trkpt>
      <trkpt lat="44.10251" lon="3.94534">
        <ele>176.94824497438</ele>
        <time>2017-01-14T11:08:44Z</time>
      </trkpt>
      <trkpt lat="44.10275" lon="3.94528">
        <ele>176.90336304383</ele>
        <time>2017-01-14T11:09:00Z</time>
      </trkpt>
      <trkpt lat="44.1035" lon="3.94528">
        <ele>177.0753859237</ele>
        <time>2017-01-14T11:10:01Z</time>
      </trkpt>
      <trkpt lat="44.10422" lon="3.94519">
        <ele>177.37256926313</ele>
        <time>2017-01-14T11:11:00Z</time>
      </trkpt>
      <trkpt lat="44.10432" lon="3.94517">
        <ele>177.85906669242</ele>
        <time>2017-01-14T11:11:00Z</time>
      </trkpt>
      <trkpt lat="44.10475" lon="3.94504">
        <ele>178.81539093583</ele>
        <time>2017-01-14T11:11:35Z</time>
      </trkpt>
      <trkpt lat="44.10483" lon="3.94499">
        <ele>178.81539093583</ele>
        <time>2017-01-14T11:11:40Z</time>
      </trkpt>
      <trkpt lat="44.10489" lon="3.94495">
        <ele>179.29981841675</ele>
        <time>2017-01-14T11:11:45Z</time>
      </trkpt>
      <trkpt lat="44.10495" lon="3.94491">
        <ele>179.29981841675</ele>
        <time>2017-01-14T11:11:50Z</time>
      </trkpt>
      <trkpt lat="44.105" lon="3.94486">
        <ele>179.39470844226</ele>
        <time>2017-01-14T11:11:55Z</time>
      </trkpt>
      <trkpt lat="44.10505" lon="3.94482">
        <ele>179.39470844226</ele>
        <time>2017-01-14T11:12:00Z</time>
      </trkpt>
      <trkpt lat="44.10516" lon="3.94475">
        <ele>179.38251125095</ele>
        <time>2017-01-14T11:12:05Z</time>
      </trkpt>
      <trkpt lat="44.10545" lon="3.94461">
        <ele>179.47844147141</ele>
        <time>2017-01-14T11:12:33Z</time>
      </trkpt>
      <trkpt lat="44.10547" lon="3.94459">
        <ele>179.47844147141</ele>
        <time>2017-01-14T11:12:35Z</time>
      </trkpt>
      <trkpt lat="44.10571" lon="3.94444">
        <ele>179.76253675909</ele>
        <time>2017-01-14T11:13:03Z</time>
      </trkpt>
      <trkpt lat="44.10575" lon="3.94441">
        <ele>179.76253675909</ele>
        <time>2017-01-14T11:13:03Z</time>
      </trkpt>
      <trkpt lat="44.10593" lon="3.94425">
        <ele>180.46868457824</ele>
        <time>2017-01-14T11:13:29Z</time>
      </trkpt>
      <trkpt lat="44.10613" lon="3.94418">
        <ele>181.44608554454</ele>
        <time>2017-01-14T11:13:47Z</time>
      </trkpt>
      <trkpt lat="44.10619" lon="3.94417">
        <ele>181.44608554454</ele>
        <time>2017-01-14T11:14:03Z</time>
      </trkpt>
      <trkpt lat="44.10636" lon="3.94415">
        <ele>182.32257271302</ele>
        <time>2017-01-14T11:14:03Z</time>
      </trkpt>
      <trkpt lat="44.1065" lon="3.94414">
        <ele>183.01787875407</ele>
        <time>2017-01-14T11:14:12Z</time>
      </trkpt>
      <trkpt lat="44.10651" lon="3.94415">
        <ele>183.01787875407</ele>
        <time>2017-01-14T11:14:20Z</time>
      </trkpt>
      <trkpt lat="44.10659" lon="3.94415">
        <ele>183.60377389309</ele>
        <time>2017-01-14T11:14:20Z</time>
      </trkpt>
      <trkpt lat="44.10699" lon="3.94413">
        <ele>183.94358596491</ele>
        <time>2017-01-14T11:15:00Z</time>
      </trkpt>
      <trkpt lat="44.10769" lon="3.94413">
        <ele>183.30345366026</ele>
        <time>2017-01-14T11:16:08Z</time>
      </trkpt>
      <trkpt lat="44.10803" lon="3.9441">
        <ele>182.8034791188</ele>
        <time>2017-01-14T11:16:08Z</time>
      </trkpt>
      <trkpt lat="44.10828" lon="3.94388">
        <ele>182.66718072766</ele>
        <time>2017-01-14T11:16:35Z</time>
      </trkpt>
      <trkpt lat="44.10843" lon="3.94378">
        <ele>182.53659348339</ele>
        <time>2017-01-14T11:16:58Z</time>
      </trkpt>
      <trkpt lat="44.10862" lon="3.94363">
        <ele>182.34103308121</ele>
        <time>2017-01-14T11:17:15Z</time>
      </trkpt>
      <trkpt lat="44.10895" lon="3.94329">
        <ele>182.27519681766</ele>
        <time>2017-01-14T11:17:40Z</time>
      </trkpt>
      <trkpt lat="44.10915" lon="3.94307">
        <ele>182.12921902648</ele>
        <time>2017-01-14T11:18:01Z</time>
      </trkpt>
      <trkpt lat="44.10918" lon="3.94303">
        <ele>182.12921902648</ele>
        <time>2017-01-14T11:18:05Z</time>
      </trkpt>
      <trkpt lat="44.10921" lon="3.94296">
        <ele>181.7668799037</ele>
        <time>2017-01-14T11:18:05Z</time>
      </trkpt>
      <trkpt lat="44.1093" lon="3.9428">
        <ele>181.45207770746</ele>
        <time>2017-01-14T11:18:16Z</time>
      </trkpt>
      <trkpt lat="44.10933" lon="3.94273">
        <ele>181.45207770746</ele>
        <time>2017-01-14T11:18:31Z</time>
      </trkpt>
      <trkpt lat="44.10942" lon="3.94261">
        <ele>181.15498584127</ele>
        <time>2017-01-14T11:18:31Z</time>
      </trkpt>
      <trkpt lat="44.10942" lon="3.9426">
        <ele>181.15498584127</ele>
        <time>2017-01-14T11:18:32Z</time>
      </trkpt>
      <trkpt lat="44.10978" lon="3.94146">
        <ele>180.64607453621</ele>
        <time>2017-01-14T11:19:47Z</time>
      </trkpt>
      <trkpt lat="44.10985" lon="3.9412">
        <ele>180.05934300332</ele>
        <time>2017-01-14T11:20:00Z</time>
      </trkpt>
      <trkpt lat="44.10998" lon="3.94052">
        <ele>178.66845504389</ele>
        <time>2017-01-14T11:20:32Z</time>
      </trkpt>
      <trkpt lat="44.10999" lon="3.94047">
        <ele>178.66845504389</ele>
        <time>2017-01-14T11:20:35Z</time>
      </trkpt>
      <trkpt lat="44.11016" lon="3.94012">
        <ele>176.95606949541</ele>
        <time>2017-01-14T11:21:01Z</time>
      </trkpt>
      <trkpt lat="44.11026" lon="3.93986">
        <ele>174.98091546586</ele>
        <time>2017-01-14T11:21:24Z</time>
      </trkpt>
      <trkpt lat="44.11033" lon="3.93973">
        <ele>172.92784650014</ele>
        <time>2017-01-14T11:21:24Z</time>
      </trkpt>
      <trkpt lat="44.11045" lon="3.93949">
        <ele>170.7520086736</ele>
        <time>2017-01-14T11:21:43Z</time>
      </trkpt>
      <trkpt lat="44.11047" lon="3.93941">
        <ele>170.7520086736</ele>
        <time>2017-01-14T11:21:53Z</time>
      </trkpt>
      <trkpt lat="44.1105" lon="3.93936">
        <ele>168.700495446</ele>
        <time>2017-01-14T11:21:53Z</time>
      </trkpt>
      <trkpt lat="44.11076" lon="3.93892">
        <ele>166.95856541209</ele>
        <time>2017-01-14T11:22:23Z</time>
      </trkpt>
      <trkpt lat="44.1112" lon="3.93838">
        <ele>165.59594593897</ele>
        <time>2017-01-14T11:23:20Z</time>
      </trkpt>
      <trkpt lat="44.11128" lon="3.93831">
        <ele>164.53181653147</ele>
        <time>2017-01-14T11:23:35Z</time>
      </trkpt>
      <trkpt lat="44.11136" lon="3.93827">
        <ele>164.53181653147</ele>
        <time>2017-01-14T11:23:37Z</time>
      </trkpt>
      <trkpt lat="44.11172" lon="3.9382">
        <ele>165.07492615729</ele>
        <time>2017-01-14T11:24:30Z</time>
      </trkpt>
      <trkpt lat="44.11182" lon="3.93818">
        <ele>164.69754299174</ele>
        <time>2017-01-14T11:24:35Z</time>
      </trkpt>
      <trkpt lat="44.11182" lon="3.93815">
        <ele>164.69754299174</ele>
        <time>2017-01-14T11:24:43Z</time>
      </trkpt>
      <trkpt lat="44.11188" lon="3.93813">
        <ele>164.69754299174</ele>
        <time>2017-01-14T11:24:50Z</time>
      </trkpt>
      <trkpt lat="44.11178" lon="3.93809">
        <ele>164.16113612065</ele>
        <time>2017-01-14T11:25:31Z</time>
      </trkpt>
      <trkpt lat="44.1116" lon="3.93823">
        <ele>163.47921887809</ele>
        <time>2017-01-14T11:26:01Z</time>
      </trkpt>
      <trkpt lat="44.11194" lon="3.93805">
        <ele>162.57805834374</ele>
        <time>2017-01-14T11:27:02Z</time>
      </trkpt>
      <trkpt lat="44.11195" lon="3.93804">
        <ele>162.57805834374</ele>
        <time>2017-01-14T11:27:02Z</time>
      </trkpt>
      <trkpt lat="44.11261" lon="3.9377">
        <ele>162.16876167501</ele>
        <time>2017-01-14T11:28:50Z</time>
      </trkpt>
      <trkpt lat="44.11289" lon="3.93746">
        <ele>161.99990904976</ele>
        <time>2017-01-14T11:29:29Z</time>
      </trkpt>
      <trkpt lat="44.113" lon="3.93737">
        <ele>161.96759752643</ele>
        <time>2017-01-14T11:29:29Z</time>
      </trkpt>
      <trkpt lat="44.11324" lon="3.93703">
        <ele>162.27797408819</ele>
        <time>2017-01-14T11:30:00Z</time>
      </trkpt>
      <trkpt lat="44.11337" lon="3.93672">
        <ele>162.64499069312</ele>
        <time>2017-01-14T11:30:27Z</time>
      </trkpt>
      <trkpt lat="44.11353" lon="3.9365">
        <ele>163.91394370035</ele>
        <time>2017-01-14T11:32:01Z</time>
      </trkpt>
      <trkpt lat="44.1136" lon="3.93645">
        <ele>163.91394370035</ele>
        <time>2017-01-14T11:32:09Z</time>
      </trkpt>
      <trkpt lat="44.11361" lon="3.93644">
        <ele>163.91394370035</ele>
        <time>2017-01-14T11:32:10Z</time>
      </trkpt>
      <trkpt lat="44.11363" lon="3.93644">
        <ele>165.33655781676</ele>
        <time>2017-01-14T11:32:15Z</time>
      </trkpt>
      <trkpt lat="44.11365" lon="3.93643">
        <ele>165.33655781676</ele>
        <time>2017-01-14T11:32:20Z</time>
      </trkpt>
      <trkpt lat="44.11371" lon="3.9364">
        <ele>165.33655781676</ele>
        <time>2017-01-14T11:32:25Z</time>
      </trkpt>
      <trkpt lat="44.11392" lon="3.93622">
        <ele>167.09887790459</ele>
        <time>2017-01-14T11:32:50Z</time>
      </trkpt>
      <trkpt lat="44.11415" lon="3.93604">
        <ele>168.83870398487</ele>
        <time>2017-01-14T11:33:13Z</time>
      </trkpt>
      <trkpt lat="44.1142" lon="3.93601">
        <ele>168.83870398487</ele>
        <time>2017-01-14T11:33:15Z</time>
      </trkpt>
      <trkpt lat="44.115" lon="3.93472">
        <ele>171.12900425246</ele>
        <time>2017-01-14T11:35:00Z</time>
      </trkpt>
      <trkpt lat="44.11502" lon="3.93465">
        <ele>171.12900425246</ele>
        <time>2017-01-14T11:35:05Z</time>
      </trkpt>
      <trkpt lat="44.11527" lon="3.93433">
        <ele>174.095267196</ele>
        <time>2017-01-14T11:35:33Z</time>
      </trkpt>
      <trkpt lat="44.11541" lon="3.93407">
        <ele>176.85702187238</ele>
        <time>2017-01-14T11:36:00Z</time>
      </trkpt>
      <trkpt lat="44.11552" lon="3.93372">
        <ele>179.76708962665</ele>
        <time>2017-01-14T11:36:15Z</time>
      </trkpt>
      <trkpt lat="44.11547" lon="3.93324">
        <ele>182.61854009652</ele>
        <time>2017-01-14T11:36:45Z</time>
      </trkpt>
      <trkpt lat="44.11548" lon="3.93311">
        <ele>185.33526493541</ele>
        <time>2017-01-14T11:36:54Z</time>
      </trkpt>
      <trkpt lat="44.11568" lon="3.93309">
        <ele>188.39502749407</ele>
        <time>2017-01-14T11:37:28Z</time>
      </trkpt>
      <trkpt lat="44.1161" lon="3.93272">
        <ele>191.8936239502</ele>
        <time>2017-01-14T11:38:10Z</time>
      </trkpt>
      <trkpt lat="44.11639" lon="3.93196">
        <ele>195.83222948187</ele>
        <time>2017-01-14T11:39:05Z</time>
      </trkpt>
      <trkpt lat="44.11639" lon="3.93193">
        <ele>195.83222948187</ele>
        <time>2017-01-14T11:39:05Z</time>
      </trkpt>
      <trkpt lat="44.11642" lon="3.93106">
        <ele>200.02348589835</ele>
        <time>2017-01-14T11:40:04Z</time>
      </trkpt>
      <trkpt lat="44.11644" lon="3.93033">
        <ele>204.13474988585</ele>
        <time>2017-01-14T11:40:45Z</time>
      </trkpt>
      <trkpt lat="44.11646" lon="3.93011">
        <ele>207.9735763141</ele>
        <time>2017-01-14T11:41:01Z</time>
      </trkpt>
      <trkpt lat="44.11644" lon="3.92984">
        <ele>211.50677597718</ele>
        <time>2017-01-14T11:41:27Z</time>
      </trkpt>
      <trkpt lat="44.11647" lon="3.92973">
        <ele>211.50677597718</ele>
        <time>2017-01-14T11:41:27Z</time>
      </trkpt>
      <trkpt lat="44.11636" lon="3.9291">
        <ele>214.92086480565</ele>
        <time>2017-01-14T11:42:17Z</time>
      </trkpt>
      <trkpt lat="44.11637" lon="3.92905">
        <ele>214.92086480565</ele>
        <time>2017-01-14T11:42:17Z</time>
      </trkpt>
      <trkpt lat="44.1163" lon="3.92843">
        <ele>218.11538316146</ele>
        <time>2017-01-14T11:43:07Z</time>
      </trkpt>
      <trkpt lat="44.11628" lon="3.92832">
        <ele>218.11538316146</ele>
        <time>2017-01-14T11:43:07Z</time>
      </trkpt>
      <trkpt lat="44.11627" lon="3.92684">
        <ele>221.79076780141</ele>
        <time>2017-01-14T11:44:45Z</time>
      </trkpt>
      <trkpt lat="44.11624" lon="3.92678">
        <ele>221.79076780141</ele>
        <time>2017-01-14T11:44:52Z</time>
      </trkpt>
      <trkpt lat="44.1161" lon="3.92663">
        <ele>225.19693811638</ele>
        <time>2017-01-14T11:45:08Z</time>
      </trkpt>
      <trkpt lat="44.11604" lon="3.92653">
        <ele>228.24524054905</ele>
        <time>2017-01-14T11:45:09Z</time>
      </trkpt>
      <trkpt lat="44.11602" lon="3.9261">
        <ele>230.97008653904</ele>
        <time>2017-01-14T11:46:00Z</time>
      </trkpt>
      <trkpt lat="44.11605" lon="3.92603">
        <ele>230.97008653904</ele>
        <time>2017-01-14T11:46:00Z</time>
      </trkpt>
      <trkpt lat="44.11638" lon="3.9254">
        <ele>234.3989060351</ele>
        <time>2017-01-14T11:47:01Z</time>
      </trkpt>
      <trkpt lat="44.11638" lon="3.92539">
        <ele>234.3989060351</ele>
        <time>2017-01-14T11:47:02Z</time>
      </trkpt>
      <trkpt lat="44.11644" lon="3.9253">
        <ele>234.3989060351</ele>
        <time>2017-01-14T11:47:11Z</time>
      </trkpt>
      <trkpt lat="44.11669" lon="3.92466">
        <ele>238.84782602763</ele>
        <time>2017-01-14T11:48:01Z</time>
      </trkpt>
      <trkpt lat="44.11665" lon="3.92448">
        <ele>243.38219534255</ele>
        <time>2017-01-14T11:48:16Z</time>
      </trkpt>
      <trkpt lat="44.11661" lon="3.92426">
        <ele>247.65486319793</ele>
        <time>2017-01-14T11:48:35Z</time>
      </trkpt>
      <trkpt lat="44.11654" lon="3.92407">
        <ele>251.61900047426</ele>
        <time>2017-01-14T11:48:51Z</time>
      </trkpt>
      <trkpt lat="44.11653" lon="3.92405">
        <ele>251.61900047426</ele>
        <time>2017-01-14T11:48:55Z</time>
      </trkpt>
      <trkpt lat="44.11647" lon="3.92391">
        <ele>255.08824541567</ele>
        <time>2017-01-14T11:49:20Z</time>
      </trkpt>
      <trkpt lat="44.11645" lon="3.92386">
        <ele>255.08824541567</ele>
        <time>2017-01-14T11:49:25Z</time>
      </trkpt>
      <trkpt lat="44.11644" lon="3.92382">
        <ele>255.08824541567</ele>
        <time>2017-01-14T11:49:30Z</time>
      </trkpt>
      <trkpt lat="44.11643" lon="3.92378">
        <ele>258.13658071996</ele>
        <time>2017-01-14T11:49:35Z</time>
      </trkpt>
      <trkpt lat="44.11642" lon="3.92373">
        <ele>258.13658071996</ele>
        <time>2017-01-14T11:49:40Z</time>
      </trkpt>
      <trkpt lat="44.11639" lon="3.92351">
        <ele>260.74753875918</ele>
        <time>2017-01-14T11:50:01Z</time>
      </trkpt>
      <trkpt lat="44.1168" lon="3.92282">
        <ele>264.14672763836</ele>
        <time>2017-01-14T11:51:34Z</time>
      </trkpt>
      <trkpt lat="44.11736" lon="3.92192">
        <ele>269.29484287002</ele>
        <time>2017-01-14T11:52:40Z</time>
      </trkpt>
      <trkpt lat="44.11739" lon="3.92186">
        <ele>269.29484287002</ele>
        <time>2017-01-14T11:52:45Z</time>
      </trkpt>
      <trkpt lat="44.11746" lon="3.92164">
        <ele>274.166266995</ele>
        <time>2017-01-14T11:53:06Z</time>
      </trkpt>
      <trkpt lat="44.1175" lon="3.92157">
        <ele>274.166266995</ele>
        <time>2017-01-14T11:53:06Z</time>
      </trkpt>
      <trkpt lat="44.11762" lon="3.92105">
        <ele>278.83074644725</ele>
        <time>2017-01-14T11:54:00Z</time>
      </trkpt>
      <trkpt lat="44.11758" lon="3.92082">
        <ele>282.92140289296</ele>
        <time>2017-01-14T11:54:17Z</time>
      </trkpt>
      <trkpt lat="44.11758" lon="3.92052">
        <ele>286.46046480999</ele>
        <time>2017-01-14T11:54:41Z</time>
      </trkpt>
      <trkpt lat="44.11753" lon="3.92026">
        <ele>289.5135680011</ele>
        <time>2017-01-14T11:54:53Z</time>
      </trkpt>
      <trkpt lat="44.11752" lon="3.92025">
        <ele>289.5135680011</ele>
        <time>2017-01-14T11:54:59Z</time>
      </trkpt>
      <trkpt lat="44.11748" lon="3.91975">
        <ele>292.18637490743</ele>
        <time>2017-01-14T11:55:43Z</time>
      </trkpt>
      <trkpt lat="44.11757" lon="3.91891">
        <ele>294.7510293358</ele>
        <time>2017-01-14T11:56:40Z</time>
      </trkpt>
      <trkpt lat="44.11791" lon="3.91757">
        <ele>297.8060874745</ele>
        <time>2017-01-14T11:58:35Z</time>
      </trkpt>
      <trkpt lat="44.11793" lon="3.91738">
        <ele>300.56470133773</ele>
        <time>2017-01-14T11:58:42Z</time>
      </trkpt>
      <trkpt lat="44.11731" lon="3.91617">
        <ele>303.278834114</ele>
        <time>2017-01-14T12:00:38Z</time>
      </trkpt>
      <trkpt lat="44.11724" lon="3.91605">
        <ele>305.67784437151</ele>
        <time>2017-01-14T12:00:38Z</time>
      </trkpt>
      <trkpt lat="44.11718" lon="3.91593">
        <ele>307.71378469056</ele>
        <time>2017-01-14T12:00:53Z</time>
      </trkpt>
      <trkpt lat="44.11699" lon="3.91526">
        <ele>309.45869144009</ele>
        <time>2017-01-14T12:01:35Z</time>
      </trkpt>
      <trkpt lat="44.11689" lon="3.91494">
        <ele>311.32613396276</ele>
        <time>2017-01-14T12:02:00Z</time>
      </trkpt>
      <trkpt lat="44.11686" lon="3.91488">
        <ele>311.32613396276</ele>
        <time>2017-01-14T12:02:05Z</time>
      </trkpt>
      <trkpt lat="44.11682" lon="3.91478">
        <ele>312.9640885132</ele>
        <time>2017-01-14T12:02:15Z</time>
      </trkpt>
      <trkpt lat="44.1168" lon="3.91471">
        <ele>312.9640885132</ele>
        <time>2017-01-14T12:02:20Z</time>
      </trkpt>
      <trkpt lat="44.11673" lon="3.91454">
        <ele>314.39300750529</ele>
        <time>2017-01-14T12:02:35Z</time>
      </trkpt>
      <trkpt lat="44.11672" lon="3.91448">
        <ele>314.39300750529</ele>
        <time>2017-01-14T12:02:40Z</time>
      </trkpt>
      <trkpt lat="44.11669" lon="3.91435">
        <ele>315.67574010369</ele>
        <time>2017-01-14T12:02:50Z</time>
      </trkpt>
      <trkpt lat="44.11668" lon="3.91415">
        <ele>316.91422271116</ele>
        <time>2017-01-14T12:03:15Z</time>
      </trkpt>
      <trkpt lat="44.11663" lon="3.91408">
        <ele>316.91422271116</ele>
        <time>2017-01-14T12:03:26Z</time>
      </trkpt>
      <trkpt lat="44.11661" lon="3.91403">
        <ele>317.9292531961</ele>
        <time>2017-01-14T12:03:30Z</time>
      </trkpt>
      <trkpt lat="44.11656" lon="3.9136">
        <ele>319.11748653432</ele>
        <time>2017-01-14T12:04:16Z</time>
      </trkpt>
      <trkpt lat="44.11656" lon="3.91351">
        <ele>319.11748653432</ele>
        <time>2017-01-14T12:04:16Z</time>
      </trkpt>
      <trkpt lat="44.11651" lon="3.91334">
        <ele>320.09656982818</ele>
        <time>2017-01-14T12:04:33Z</time>
      </trkpt>
      <trkpt lat="44.1164" lon="3.91313">
        <ele>321.01721053808</ele>
        <time>2017-01-14T12:04:40Z</time>
      </trkpt>
      <trkpt lat="44.11633" lon="3.91273">
        <ele>321.93271402834</ele>
        <time>2017-01-14T12:05:13Z</time>
      </trkpt>
      <trkpt lat="44.1163" lon="3.91251">
        <ele>322.71950714897</ele>
        <time>2017-01-14T12:05:32Z</time>
      </trkpt>
      <trkpt lat="44.1159" lon="3.91146">
        <ele>324.38747684734</ele>
        <time>2017-01-14T12:06:44Z</time>
      </trkpt>
      <trkpt lat="44.11594" lon="3.91131">
        <ele>325.73692229981</ele>
        <time>2017-01-14T12:06:44Z</time>
      </trkpt>
      <trkpt lat="44.11595" lon="3.91116">
        <ele>326.78116766344</ele>
        <time>2017-01-14T12:07:01Z</time>
      </trkpt>
      <trkpt lat="44.11593" lon="3.91107">
        <ele>326.78116766344</ele>
        <time>2017-01-14T12:07:01Z</time>
      </trkpt>
      <trkpt lat="44.11593" lon="3.91093">
        <ele>327.79273092236</ele>
        <time>2017-01-14T12:07:18Z</time>
      </trkpt>
      <trkpt lat="44.11596" lon="3.91078">
        <ele>328.6494186421</ele>
        <time>2017-01-14T12:07:18Z</time>
      </trkpt>
      <trkpt lat="44.11595" lon="3.91068">
        <ele>328.6494186421</ele>
        <time>2017-01-14T12:07:26Z</time>
      </trkpt>
      <trkpt lat="44.11598" lon="3.91009">
        <ele>329.94449524885</ele>
        <time>2017-01-14T12:08:02Z</time>
      </trkpt>
      <trkpt lat="44.11616" lon="3.90955">
        <ele>331.49133751992</ele>
        <time>2017-01-14T12:08:38Z</time>
      </trkpt>
      <trkpt lat="44.11615" lon="3.90952">
        <ele>331.49133751992</ele>
        <time>2017-01-14T12:08:40Z</time>
      </trkpt>
      <trkpt lat="44.11602" lon="3.90894">
        <ele>333.04415857669</ele>
        <time>2017-01-14T12:09:19Z</time>
      </trkpt>
      <trkpt lat="44.11585" lon="3.90861">
        <ele>334.38950711601</ele>
        <time>2017-01-14T12:10:00Z</time>
      </trkpt>
      <trkpt lat="44.11558" lon="3.90799">
        <ele>333.41339267665</ele>
        <time>2017-01-14T12:11:06Z</time>
      </trkpt>
      <trkpt lat="44.11557" lon="3.90791">
        <ele>333.41339267665</ele>
        <time>2017-01-14T12:11:06Z</time>
      </trkpt>
      <trkpt lat="44.11552" lon="3.90779">
        <ele>332.0689190973</ele>
        <time>2017-01-14T12:11:23Z</time>
      </trkpt>
      <trkpt lat="44.1155" lon="3.90777">
        <ele>332.0689190973</ele>
        <time>2017-01-14T12:11:23Z</time>
      </trkpt>
      <trkpt lat="44.11545" lon="3.90767">
        <ele>330.84078101449</ele>
        <time>2017-01-14T12:11:55Z</time>
      </trkpt>
      <trkpt lat="44.11545" lon="3.90763">
        <ele>330.84078101449</ele>
        <time>2017-01-14T12:12:00Z</time>
      </trkpt>
      <trkpt lat="44.11546" lon="3.90757">
        <ele>330.84078101449</ele>
        <time>2017-01-14T12:12:05Z</time>
      </trkpt>
      <trkpt lat="44.11544" lon="3.9075">
        <ele>329.45702448756</ele>
        <time>2017-01-14T12:12:10Z</time>
      </trkpt>
      <trkpt lat="44.11542" lon="3.90745">
        <ele>329.45702448756</ele>
        <time>2017-01-14T12:12:18Z</time>
      </trkpt>
      <trkpt lat="44.11541" lon="3.9074">
        <ele>329.45702448756</ele>
        <time>2017-01-14T12:12:20Z</time>
      </trkpt>
      <trkpt lat="44.11538" lon="3.90725">
        <ele>327.73798508454</ele>
        <time>2017-01-14T12:12:31Z</time>
      </trkpt>
      <trkpt lat="44.11538" lon="3.90721">
        <ele>327.73798508454</ele>
        <time>2017-01-14T12:12:35Z</time>
      </trkpt>
      <trkpt lat="44.11534" lon="3.90706">
        <ele>325.8926263867</ele>
        <time>2017-01-14T12:12:45Z</time>
      </trkpt>
      <trkpt lat="44.11527" lon="3.90688">
        <ele>323.75441925719</ele>
        <time>2017-01-14T12:12:59Z</time>
      </trkpt>
      <trkpt lat="44.11527" lon="3.90686">
        <ele>323.75441925719</ele>
        <time>2017-01-14T12:13:00Z</time>
      </trkpt>
      <trkpt lat="44.11526" lon="3.9068">
        <ele>323.75441925719</ele>
        <time>2017-01-14T12:13:05Z</time>
      </trkpt>
      <trkpt lat="44.11526" lon="3.90681">
        <ele>323.75441925719</ele>
        <time>2017-01-14T12:13:10Z</time>
      </trkpt>
      <trkpt lat="44.11523" lon="3.90674">
        <ele>321.34258530485</ele>
        <time>2017-01-14T12:13:20Z</time>
      </trkpt>
      <trkpt lat="44.11521" lon="3.9067">
        <ele>321.34258530485</ele>
        <time>2017-01-14T12:13:25Z</time>
      </trkpt>
      <trkpt lat="44.11514" lon="3.9066">
        <ele>318.96366853843</ele>
        <time>2017-01-14T12:13:35Z</time>
      </trkpt>
      <trkpt lat="44.11503" lon="3.90636">
        <ele>316.55546222294</ele>
        <time>2017-01-14T12:13:55Z</time>
      </trkpt>
      <trkpt lat="44.11505" lon="3.90631">
        <ele>316.55546222294</ele>
        <time>2017-01-14T12:13:55Z</time>
      </trkpt>
      <trkpt lat="44.11529" lon="3.906">
        <ele>314.10335565049</ele>
        <time>2017-01-14T12:14:24Z</time>
      </trkpt>
      <trkpt lat="44.11529" lon="3.906">
        <ele>314.10335565049</ele>
        <time>2017-01-14T12:14:31Z</time>
      </trkpt>
      <trkpt lat="44.1153" lon="3.90596">
        <ele>314.10335565049</ele>
        <time>2017-01-14T12:15:12Z</time>
      </trkpt>
      <trkpt lat="44.11527" lon="3.90604">
        <ele>311.62245304922</ele>
        <time>2017-01-14T12:15:12Z</time>
      </trkpt>
      <trkpt lat="44.11506" lon="3.90631">
        <ele>309.29944717946</ele>
        <time>2017-01-14T12:15:35Z</time>
      </trkpt>
      <trkpt lat="44.11503" lon="3.90638">
        <ele>309.29944717946</ele>
        <time>2017-01-14T12:15:40Z</time>
      </trkpt>
      <trkpt lat="44.11503" lon="3.90645">
        <ele>307.24890285935</ele>
        <time>2017-01-14T12:15:45Z</time>
      </trkpt>
      <trkpt lat="44.11505" lon="3.90649">
        <ele>307.24890285935</ele>
        <time>2017-01-14T12:15:50Z</time>
      </trkpt>
      <trkpt lat="44.11508" lon="3.90651">
        <ele>307.24890285935</ele>
        <time>2017-01-14T12:15:55Z</time>
      </trkpt>
      <trkpt lat="44.11508" lon="3.9065">
        <ele>307.24890285935</ele>
        <time>2017-01-14T12:16:00Z</time>
      </trkpt>
      <trkpt lat="44.11508" lon="3.90655">
        <ele>306.03702826032</ele>
        <time>2017-01-14T12:16:40Z</time>
      </trkpt>
      <trkpt lat="44.11514" lon="3.9066">
        <ele>306.03702826032</ele>
        <time>2017-01-14T12:16:48Z</time>
      </trkpt>
      <trkpt lat="44.11532" lon="3.90678">
        <ele>304.90316043419</ele>
        <time>2017-01-14T12:17:03Z</time>
      </trkpt>
      <trkpt lat="44.11534" lon="3.90679">
        <ele>304.90316043419</ele>
        <time>2017-01-14T12:17:08Z</time>
      </trkpt>
      <trkpt lat="44.11585" lon="3.90749">
        <ele>303.45900565047</ele>
        <time>2017-01-14T12:18:15Z</time>
      </trkpt>
      <trkpt lat="44.11723" lon="3.9089">
        <ele>299.87539481412</ele>
        <time>2017-01-14T12:20:35Z</time>
      </trkpt>
      <trkpt lat="44.11729" lon="3.90888">
        <ele>299.87539481412</ele>
        <time>2017-01-14T12:20:40Z</time>
      </trkpt>
      <trkpt lat="44.11747" lon="3.90873">
        <ele>296.23890878069</ele>
        <time>2017-01-14T12:21:02Z</time>
      </trkpt>
      <trkpt lat="44.11835" lon="3.90856">
        <ele>290.83663796555</ele>
        <time>2017-01-14T12:22:59Z</time>
      </trkpt>
      <trkpt lat="44.11865" lon="3.9085">
        <ele>285.24213302931</ele>
        <time>2017-01-14T12:22:59Z</time>
      </trkpt>
      <trkpt lat="44.11866" lon="3.9085">
        <ele>285.24213302931</ele>
        <time>2017-01-14T12:23:01Z</time>
      </trkpt>
      <trkpt lat="44.11872" lon="3.90845">
        <ele>285.24213302931</ele>
        <time>2017-01-14T12:23:24Z</time>
      </trkpt>
      <trkpt lat="44.11895" lon="3.90829">
        <ele>279.28505552344</ele>
        <time>2017-01-14T12:23:24Z</time>
      </trkpt>
      <trkpt lat="44.11914" lon="3.90833">
        <ele>273.0964187062</ele>
        <time>2017-01-14T12:23:50Z</time>
      </trkpt>
      <trkpt lat="44.11926" lon="3.9083">
        <ele>266.92753764862</ele>
        <time>2017-01-14T12:23:50Z</time>
      </trkpt>
      <trkpt lat="44.11934" lon="3.90815">
        <ele>260.93871020118</ele>
        <time>2017-01-14T12:24:06Z</time>
      </trkpt>
      <trkpt lat="44.11953" lon="3.90782">
        <ele>254.75868948988</ele>
        <time>2017-01-14T12:24:32Z</time>
      </trkpt>
      <trkpt lat="44.1196" lon="3.90775">
        <ele>254.75868948988</ele>
        <time>2017-01-14T12:24:32Z</time>
      </trkpt>
      <trkpt lat="44.11967" lon="3.9077">
        <ele>248.82175781788</ele>
        <time>2017-01-14T12:24:40Z</time>
      </trkpt>
      <trkpt lat="44.11972" lon="3.90764">
        <ele>248.82175781788</ele>
        <time>2017-01-14T12:24:45Z</time>
      </trkpt>
      <trkpt lat="44.1199" lon="3.90753">
        <ele>242.98149831828</ele>
        <time>2017-01-14T12:25:05Z</time>
      </trkpt>
      <trkpt lat="44.12003" lon="3.90748">
        <ele>237.50498868388</ele>
        <time>2017-01-14T12:25:22Z</time>
      </trkpt>
      <trkpt lat="44.12013" lon="3.90739">
        <ele>232.55169346611</ele>
        <time>2017-01-14T12:25:22Z</time>
      </trkpt>
      <trkpt lat="44.12057" lon="3.9076">
        <ele>227.35948627913</ele>
        <time>2017-01-14T12:26:08Z</time>
      </trkpt>
      <trkpt lat="44.12079" lon="3.90776">
        <ele>223.3552381539</ele>
        <time>2017-01-14T12:26:21Z</time>
      </trkpt>
      <trkpt lat="44.12096" lon="3.90789">
        <ele>219.00377048894</ele>
        <time>2017-01-14T12:28:05Z</time>
      </trkpt>
      <trkpt lat="44.12201" lon="3.90839">
        <ele>214.81425559713</ele>
        <time>2017-01-14T12:28:23Z</time>
      </trkpt>
      <trkpt lat="44.12202" lon="3.90842">
        <ele>214.81425559713</ele>
        <time>2017-01-14T12:28:25Z</time>
      </trkpt>
      <trkpt lat="44.12209" lon="3.90855">
        <ele>211.1854789072</ele>
        <time>2017-01-14T12:28:42Z</time>
      </trkpt>
      <trkpt lat="44.12215" lon="3.90866">
        <ele>208.12462385623</ele>
        <time>2017-01-14T12:28:42Z</time>
      </trkpt>
      <trkpt lat="44.12222" lon="3.90969">
        <ele>204.82929241291</ele>
        <time>2017-01-14T12:30:08Z</time>
      </trkpt>
      <trkpt lat="44.12267" lon="3.91012">
        <ele>202.37207340858</ele>
        <time>2017-01-14T12:31:08Z</time>
      </trkpt>
      <trkpt lat="44.12273" lon="3.91018">
        <ele>202.37207340858</ele>
        <time>2017-01-14T12:31:08Z</time>
      </trkpt>
      <trkpt lat="44.12272" lon="3.9103">
        <ele>200.10115370418</ele>
        <time>2017-01-14T12:31:17Z</time>
      </trkpt>
      <trkpt lat="44.12251" lon="3.9106">
        <ele>198.04580378576</ele>
        <time>2017-01-14T12:31:47Z</time>
      </trkpt>
      <trkpt lat="44.12248" lon="3.91062">
        <ele>198.04580378576</ele>
        <time>2017-01-14T12:31:47Z</time>
      </trkpt>
      <trkpt lat="44.12225" lon="3.9107">
        <ele>195.58370084813</ele>
        <time>2017-01-14T12:32:12Z</time>
      </trkpt>
      <trkpt lat="44.1221" lon="3.91061">
        <ele>193.29195765403</ele>
        <time>2017-01-14T12:32:20Z</time>
      </trkpt>
      <trkpt lat="44.12189" lon="3.91057">
        <ele>190.92633010395</ele>
        <time>2017-01-14T12:32:43Z</time>
      </trkpt>
      <trkpt lat="44.12182" lon="3.91069">
        <ele>188.75044248988</ele>
        <time>2017-01-14T12:32:43Z</time>
      </trkpt>
      <trkpt lat="44.12181" lon="3.91072">
        <ele>188.75044248988</ele>
        <time>2017-01-14T12:32:45Z</time>
      </trkpt>
      <trkpt lat="44.12177" lon="3.91085">
        <ele>186.79161979829</ele>
        <time>2017-01-14T12:32:54Z</time>
      </trkpt>
      <trkpt lat="44.1218" lon="3.91099">
        <ele>184.68525979919</ele>
        <time>2017-01-14T12:33:15Z</time>
      </trkpt>
      <trkpt lat="44.12183" lon="3.91123">
        <ele>182.82873728477</ele>
        <time>2017-01-14T12:33:15Z</time>
      </trkpt>
      <trkpt lat="44.12203" lon="3.91187">
        <ele>180.43648063295</ele>
        <time>2017-01-14T12:33:57Z</time>
      </trkpt>
      <trkpt lat="44.12207" lon="3.91196">
        <ele>180.43648063295</ele>
        <time>2017-01-14T12:33:57Z</time>
      </trkpt>
      <trkpt lat="44.12244" lon="3.91264">
        <ele>177.50253912051</ele>
        <time>2017-01-14T12:34:49Z</time>
      </trkpt>
      <trkpt lat="44.12245" lon="3.9127">
        <ele>177.50253912051</ele>
        <time>2017-01-14T12:34:50Z</time>
      </trkpt>
      <trkpt lat="44.12243" lon="3.91288">
        <ele>174.25336772257</ele>
        <time>2017-01-14T12:35:11Z</time>
      </trkpt>
      <trkpt lat="44.12317" lon="3.91435">
        <ele>169.5016740965</ele>
        <time>2017-01-14T12:36:45Z</time>
      </trkpt>
      <trkpt lat="44.12333" lon="3.91457">
        <ele>165.16341072586</ele>
        <time>2017-01-14T12:37:02Z</time>
      </trkpt>
      <trkpt lat="44.12344" lon="3.91476">
        <ele>161.4128837417</ele>
        <time>2017-01-14T12:37:25Z</time>
      </trkpt>
      <trkpt lat="44.12353" lon="3.91479">
        <ele>158.3521968257</ele>
        <time>2017-01-14T12:37:25Z</time>
      </trkpt>
      <trkpt lat="44.12391" lon="3.91455">
        <ele>155.41100608456</ele>
        <time>2017-01-14T12:38:27Z</time>
      </trkpt>
      <trkpt lat="44.12414" lon="3.91458">
        <ele>153.05480463088</ele>
        <time>2017-01-14T12:38:50Z</time>
      </trkpt>
      <trkpt lat="44.12425" lon="3.91463">
        <ele>150.9205580644</ele>
        <time>2017-01-14T12:38:50Z</time>
      </trkpt>
      <trkpt lat="44.12429" lon="3.91536">
        <ele>149.4061792925</ele>
        <time>2017-01-14T12:40:01Z</time>
      </trkpt>
      <trkpt lat="44.12433" lon="3.91573">
        <ele>148.83533142234</ele>
        <time>2017-01-14T12:40:21Z</time>
      </trkpt>
      <trkpt lat="44.1243" lon="3.91588">
        <ele>148.56850615743</ele>
        <time>2017-01-14T12:40:29Z</time>
      </trkpt>
      <trkpt lat="44.12416" lon="3.91606">
        <ele>148.54552975379</ele>
        <time>2017-01-14T12:40:45Z</time>
      </trkpt>
      <trkpt lat="44.12416" lon="3.91637">
        <ele>148.66675570707</ele>
        <time>2017-01-14T12:41:02Z</time>
      </trkpt>
      <trkpt lat="44.12417" lon="3.91642">
        <ele>148.66675570707</ele>
        <time>2017-01-14T12:41:02Z</time>
      </trkpt>
      <trkpt lat="44.12475" lon="3.91682">
        <ele>149.34389398924</ele>
        <time>2017-01-14T12:42:08Z</time>
      </trkpt>
      <trkpt lat="44.12485" lon="3.91686">
        <ele>150.27960829303</ele>
        <time>2017-01-14T12:42:08Z</time>
      </trkpt>
      <trkpt lat="44.12508" lon="3.9169">
        <ele>151.48600906442</ele>
        <time>2017-01-14T12:42:26Z</time>
      </trkpt>
      <trkpt lat="44.12564" lon="3.91768">
        <ele>153.3627944427</ele>
        <time>2017-01-14T12:43:56Z</time>
      </trkpt>
      <trkpt lat="44.12587" lon="3.91769">
        <ele>155.94713139334</ele>
        <time>2017-01-14T12:44:45Z</time>
      </trkpt>
      <trkpt lat="44.12589" lon="3.91766">
        <ele>155.94713139334</ele>
        <time>2017-01-14T12:44:50Z</time>
      </trkpt>
      <trkpt lat="44.12608" lon="3.91769">
        <ele>159.257259228</ele>
        <time>2017-01-14T12:45:50Z</time>
      </trkpt>
      <trkpt lat="44.12638" lon="3.91765">
        <ele>163.55326365768</ele>
        <time>2017-01-14T12:47:04Z</time>
      </trkpt>
      <trkpt lat="44.12664" lon="3.91769">
        <ele>168.71335235867</ele>
        <time>2017-01-14T12:48:15Z</time>
      </trkpt>
      <trkpt lat="44.12676" lon="3.91773">
        <ele>173.81554431361</ele>
        <time>2017-01-14T12:48:39Z</time>
      </trkpt>
      <trkpt lat="44.12718" lon="3.91806">
        <ele>180.3695263188</ele>
        <time>2017-01-14T12:50:10Z</time>
      </trkpt>
      <trkpt lat="44.12727" lon="3.91806">
        <ele>187.08994185782</ele>
        <time>2017-01-14T12:50:45Z</time>
      </trkpt>
      <trkpt lat="44.12727" lon="3.91806">
        <ele>187.08994185782</ele>
        <time>2017-01-14T12:50:50Z</time>
      </trkpt>
      <trkpt lat="44.12731" lon="3.91806">
        <ele>187.08994185782</ele>
        <time>2017-01-14T12:52:27Z</time>
      </trkpt>
      <trkpt lat="44.12732" lon="3.91808">
        <ele>187.08994185782</ele>
        <time>2017-01-14T12:52:30Z</time>
      </trkpt>
      <trkpt lat="44.12736" lon="3.91817">
        <ele>194.58722137904</ele>
        <time>2017-01-14T12:52:40Z</time>
      </trkpt>
      <trkpt lat="44.12739" lon="3.9182">
        <ele>194.58722137904</ele>
        <time>2017-01-14T12:52:45Z</time>
      </trkpt>
      <trkpt lat="44.12742" lon="3.91823">
        <ele>194.58722137904</ele>
        <time>2017-01-14T12:52:50Z</time>
      </trkpt>
      <trkpt lat="44.12744" lon="3.91824">
        <ele>201.58063732285</ele>
        <time>2017-01-14T12:52:55Z</time>
      </trkpt>
      <trkpt lat="44.12746" lon="3.91826">
        <ele>201.58063732285</ele>
        <time>2017-01-14T12:53:05Z</time>
      </trkpt>
      <trkpt lat="44.12758" lon="3.91837">
        <ele>208.13925155216</ele>
        <time>2017-01-14T12:53:21Z</time>
      </trkpt>
      <trkpt lat="44.12772" lon="3.91847">
        <ele>214.24236875768</ele>
        <time>2017-01-14T12:53:46Z</time>
      </trkpt>
      <trkpt lat="44.12775" lon="3.91849">
        <ele>214.24236875768</ele>
        <time>2017-01-14T12:53:46Z</time>
      </trkpt>
      <trkpt lat="44.12776" lon="3.91849">
        <ele>214.24236875768</ele>
        <time>2017-01-14T12:54:03Z</time>
      </trkpt>
      <trkpt lat="44.12783" lon="3.91847">
        <ele>220.29060688699</ele>
        <time>2017-01-14T12:54:27Z</time>
      </trkpt>
      <trkpt lat="44.12802" lon="3.91852">
        <ele>225.96419036832</ele>
        <time>2017-01-14T12:55:00Z</time>
      </trkpt>
      <trkpt lat="44.12804" lon="3.91852">
        <ele>225.96419036832</ele>
        <time>2017-01-14T12:55:00Z</time>
      </trkpt>
      <trkpt lat="44.12807" lon="3.91851">
        <ele>225.96419036832</ele>
        <time>2017-01-14T12:55:08Z</time>
      </trkpt>
      <trkpt lat="44.12822" lon="3.91844">
        <ele>231.44408379251</ele>
        <time>2017-01-14T12:55:45Z</time>
      </trkpt>
      <trkpt lat="44.12823" lon="3.91824">
        <ele>237.12972308745</ele>
        <time>2017-01-14T12:56:05Z</time>
      </trkpt>
      <trkpt lat="44.12824" lon="3.9182">
        <ele>237.12972308745</ele>
        <time>2017-01-14T12:56:05Z</time>
      </trkpt>
      <trkpt lat="44.12825" lon="3.91759">
        <ele>242.84365404958</ele>
        <time>2017-01-14T12:56:51Z</time>
      </trkpt>
      <trkpt lat="44.12821" lon="3.91756">
        <ele>242.84365404958</ele>
        <time>2017-01-14T12:56:51Z</time>
      </trkpt>
      <trkpt lat="44.12816" lon="3.91755">
        <ele>248.06175694564</ele>
        <time>2017-01-14T12:56:55Z</time>
      </trkpt>
      <trkpt lat="44.12811" lon="3.9174">
        <ele>252.94896175709</ele>
        <time>2017-01-14T12:57:10Z</time>
      </trkpt>
      <trkpt lat="44.1284" lon="3.91723">
        <ele>257.47232063805</ele>
        <time>2017-01-14T12:57:55Z</time>
      </trkpt>
      <trkpt lat="44.12887" lon="3.91707">
        <ele>262.33794161757</ele>
        <time>2017-01-14T12:59:20Z</time>
      </trkpt>
      <trkpt lat="44.12895" lon="3.91702">
        <ele>262.33794161757</ele>
        <time>2017-01-14T12:59:42Z</time>
      </trkpt>
      <trkpt lat="44.12911" lon="3.91712">
        <ele>267.49359668151</ele>
        <time>2017-01-14T13:00:07Z</time>
      </trkpt>
      <trkpt lat="44.12915" lon="3.91714">
        <ele>267.49359668151</ele>
        <time>2017-01-14T13:00:07Z</time>
      </trkpt>
      <trkpt lat="44.1292" lon="3.91726">
        <ele>272.45837595741</ele>
        <time>2017-01-14T13:00:29Z</time>
      </trkpt>
      <trkpt lat="44.12916" lon="3.91728">
        <ele>272.45837595741</ele>
        <time>2017-01-14T13:00:31Z</time>
      </trkpt>
      <trkpt lat="44.12913" lon="3.9175">
        <ele>277.53722824885</ele>
        <time>2017-01-14T13:01:00Z</time>
      </trkpt>
      <trkpt lat="44.12914" lon="3.91754">
        <ele>277.53722824885</ele>
        <time>2017-01-14T13:01:05Z</time>
      </trkpt>
      <trkpt lat="44.12908" lon="3.91791">
        <ele>282.4653649957</ele>
        <time>2017-01-14T13:02:00Z</time>
      </trkpt>
      <trkpt lat="44.12925" lon="3.91827">
        <ele>288.03606733727</ele>
        <time>2017-01-14T13:03:06Z</time>
      </trkpt>
      <trkpt lat="44.12933" lon="3.9183">
        <ele>288.03606733727</ele>
        <time>2017-01-14T13:03:40Z</time>
      </trkpt>
      <trkpt lat="44.12936" lon="3.91834">
        <ele>294.14727973119</ele>
        <time>2017-01-14T13:03:45Z</time>
      </trkpt>
      <trkpt lat="44.12941" lon="3.91851">
        <ele>299.72354535903</ele>
        <time>2017-01-14T13:04:14Z</time>
      </trkpt>
      <trkpt lat="44.12941" lon="3.91852">
        <ele>299.72354535903</ele>
        <time>2017-01-14T13:04:15Z</time>
      </trkpt>
      <trkpt lat="44.12947" lon="3.91891">
        <ele>305.02424110297</ele>
        <time>2017-01-14T13:05:06Z</time>
      </trkpt>
      <trkpt lat="44.12962" lon="3.91926">
        <ele>310.16131534637</ele>
        <time>2017-01-14T13:06:00Z</time>
      </trkpt>
      <trkpt lat="44.12981" lon="3.91974">
        <ele>315.29713525038</ele>
        <time>2017-01-14T13:07:37Z</time>
      </trkpt>
      <trkpt lat="44.1298" lon="3.91975">
        <ele>315.29713525038</ele>
        <time>2017-01-14T13:07:38Z</time>
      </trkpt>
      <trkpt lat="44.13021" lon="3.91997">
        <ele>321.14470241166</ele>
        <time>2017-01-14T13:09:00Z</time>
      </trkpt>
      <trkpt lat="44.13027" lon="3.91999">
        <ele>321.14470241166</ele>
        <time>2017-01-14T13:09:06Z</time>
      </trkpt>
      <trkpt lat="44.13057" lon="3.92009">
        <ele>327.10938844846</ele>
        <time>2017-01-14T13:10:01Z</time>
      </trkpt>
      <trkpt lat="44.13053" lon="3.92011">
        <ele>327.10938844846</ele>
        <time>2017-01-14T13:10:19Z</time>
      </trkpt>
      <trkpt lat="44.13071" lon="3.92037">
        <ele>333.53390470512</ele>
        <time>2017-01-14T13:11:00Z</time>
      </trkpt>
      <trkpt lat="44.13105" lon="3.92101">
        <ele>340.92233058702</ele>
        <time>2017-01-14T13:12:42Z</time>
      </trkpt>
      <trkpt lat="44.13117" lon="3.92126">
        <ele>348.2983828011</ele>
        <time>2017-01-14T13:13:05Z</time>
      </trkpt>
      <trkpt lat="44.13127" lon="3.92211">
        <ele>356.70351048847</ele>
        <time>2017-01-14T13:15:01Z</time>
      </trkpt>
      <trkpt lat="44.13122" lon="3.92221">
        <ele>356.70351048847</ele>
        <time>2017-01-14T13:15:08Z</time>
      </trkpt>
      <trkpt lat="44.13125" lon="3.92227">
        <ele>364.5206605937</ele>
        <time>2017-01-14T13:15:25Z</time>
      </trkpt>
      <trkpt lat="44.13148" lon="3.92312">
        <ele>372.40095280538</ele>
        <time>2017-01-14T13:16:58Z</time>
      </trkpt>
      <trkpt lat="44.13148" lon="3.92313">
        <ele>372.40095280538</ele>
        <time>2017-01-14T13:16:59Z</time>
      </trkpt>
      <trkpt lat="44.13148" lon="3.92314">
        <ele>372.40095280538</ele>
        <time>2017-01-14T13:17:00Z</time>
      </trkpt>
      <trkpt lat="44.13181" lon="3.9236">
        <ele>380.6597560714</ele>
        <time>2017-01-14T13:18:16Z</time>
      </trkpt>
      <trkpt lat="44.13191" lon="3.92375">
        <ele>388.10434367703</ele>
        <time>2017-01-14T13:18:38Z</time>
      </trkpt>
      <trkpt lat="44.13192" lon="3.92368">
        <ele>388.10434367703</ele>
        <time>2017-01-14T13:21:00Z</time>
      </trkpt>
      <trkpt lat="44.13161" lon="3.92341">
        <ele>396.09666603125</ele>
        <time>2017-01-14T13:23:15Z</time>
      </trkpt>
      <trkpt lat="44.13157" lon="3.92334">
        <ele>396.09666603125</ele>
        <time>2017-01-14T13:23:20Z</time>
      </trkpt>
      <trkpt lat="44.13152" lon="3.92326">
        <ele>403.05856793275</ele>
        <time>2017-01-14T13:23:30Z</time>
      </trkpt>
      <trkpt lat="44.13151" lon="3.92318">
        <ele>403.05856793275</ele>
        <time>2017-01-14T13:23:35Z</time>
      </trkpt>
      <trkpt lat="44.13129" lon="3.92269">
        <ele>408.88581878968</ele>
        <time>2017-01-14T13:24:13Z</time>
      </trkpt>
      <trkpt lat="44.13105" lon="3.92239">
        <ele>413.67281452142</ele>
        <time>2017-01-14T13:24:50Z</time>
      </trkpt>
      <trkpt lat="44.13086" lon="3.92241">
        <ele>417.71211004182</ele>
        <time>2017-01-14T13:25:15Z</time>
      </trkpt>
      <trkpt lat="44.13065" lon="3.92243">
        <ele>420.90256660031</ele>
        <time>2017-01-14T13:25:31Z</time>
      </trkpt>
      <trkpt lat="44.13051" lon="3.92254">
        <ele>423.28290790751</ele>
        <time>2017-01-14T13:25:47Z</time>
      </trkpt>
      <trkpt lat="44.13034" lon="3.92257">
        <ele>424.93482817159</ele>
        <time>2017-01-14T13:26:07Z</time>
      </trkpt>
      <trkpt lat="44.12932" lon="3.92297">
        <ele>424.79784618743</ele>
        <time>2017-01-14T13:27:58Z</time>
      </trkpt>
      <trkpt lat="44.12886" lon="3.92296">
        <ele>423.75364218957</ele>
        <time>2017-01-14T13:29:03Z</time>
      </trkpt>
      <trkpt lat="44.12879" lon="3.92296">
        <ele>423.75364218957</ele>
        <time>2017-01-14T13:29:05Z</time>
      </trkpt>
      <trkpt lat="44.12847" lon="3.92301">
        <ele>422.04537669803</ele>
        <time>2017-01-14T13:29:42Z</time>
      </trkpt>
      <trkpt lat="44.12814" lon="3.92292">
        <ele>419.68412815885</ele>
        <time>2017-01-14T13:30:07Z</time>
      </trkpt>
      <trkpt lat="44.12796" lon="3.92294">
        <ele>416.92700020195</ele>
        <time>2017-01-14T13:30:15Z</time>
      </trkpt>
      <trkpt lat="44.12744" lon="3.92299">
        <ele>412.86038146991</ele>
        <time>2017-01-14T13:31:08Z</time>
      </trkpt>
      <trkpt lat="44.12737" lon="3.92299">
        <ele>412.86038146991</ele>
        <time>2017-01-14T13:31:20Z</time>
      </trkpt>
      <trkpt lat="44.12681" lon="3.92301">
        <ele>407.72216262261</ele>
        <time>2017-01-14T13:32:00Z</time>
      </trkpt>
      <trkpt lat="44.12609" lon="3.92321">
        <ele>401.76439813729</ele>
        <time>2017-01-14T13:33:04Z</time>
      </trkpt>
      <trkpt lat="44.12608" lon="3.92321">
        <ele>401.76439813729</ele>
        <time>2017-01-14T13:33:05Z</time>
      </trkpt>
      <trkpt lat="44.12598" lon="3.92329">
        <ele>395.71264316554</ele>
        <time>2017-01-14T13:33:16Z</time>
      </trkpt>
      <trkpt lat="44.12594" lon="3.92395">
        <ele>389.61940817817</ele>
        <time>2017-01-14T13:34:08Z</time>
      </trkpt>
      <trkpt lat="44.12596" lon="3.92421">
        <ele>382.99985108508</ele>
        <time>2017-01-14T13:34:35Z</time>
      </trkpt>
      <trkpt lat="44.12478" lon="3.92516">
        <ele>374.00787546076</ele>
        <time>2017-01-14T13:36:59Z</time>
      </trkpt>
      <trkpt lat="44.12467" lon="3.92523">
        <ele>365.39215401134</ele>
        <time>2017-01-14T13:36:59Z</time>
      </trkpt>
      <trkpt lat="44.12419" lon="3.92562">
        <ele>357.85316805203</ele>
        <time>2017-01-14T13:38:50Z</time>
      </trkpt>
      <trkpt lat="44.12391" lon="3.92592">
        <ele>350.52309812557</ele>
        <time>2017-01-14T13:40:09Z</time>
      </trkpt>
      <trkpt lat="44.12384" lon="3.92602">
        <ele>343.2883135176</ele>
        <time>2017-01-14T13:41:09Z</time>
      </trkpt>
      <trkpt lat="44.12386" lon="3.92601">
        <ele>343.2883135176</ele>
        <time>2017-01-14T13:41:17Z</time>
      </trkpt>
      <trkpt lat="44.12384" lon="3.92601">
        <ele>343.2883135176</ele>
        <time>2017-01-14T13:41:20Z</time>
      </trkpt>
      <trkpt lat="44.12381" lon="3.926">
        <ele>343.2883135176</ele>
        <time>2017-01-14T13:41:25Z</time>
      </trkpt>
      <trkpt lat="44.12344" lon="3.9262">
        <ele>336.40279075613</ele>
        <time>2017-01-14T13:42:08Z</time>
      </trkpt>
      <trkpt lat="44.12278" lon="3.92649">
        <ele>329.33629522601</ele>
        <time>2017-01-14T13:43:00Z</time>
      </trkpt>
      <trkpt lat="44.12215" lon="3.92686">
        <ele>321.8566362553</ele>
        <time>2017-01-14T13:44:09Z</time>
      </trkpt>
      <trkpt lat="44.12208" lon="3.92688">
        <ele>321.8566362553</ele>
        <time>2017-01-14T13:44:09Z</time>
      </trkpt>
      <trkpt lat="44.12161" lon="3.92701">
        <ele>314.15251037384</ele>
        <time>2017-01-14T13:44:51Z</time>
      </trkpt>
      <trkpt lat="44.12112" lon="3.92726">
        <ele>306.02383108214</ele>
        <time>2017-01-14T13:45:25Z</time>
      </trkpt>
      <trkpt lat="44.12071" lon="3.92765">
        <ele>297.28551766348</ele>
        <time>2017-01-14T13:46:09Z</time>
      </trkpt>
      <trkpt lat="44.1202" lon="3.92823">
        <ele>287.70924645231</ele>
        <time>2017-01-14T13:47:01Z</time>
      </trkpt>
      <trkpt lat="44.11971" lon="3.92894">
        <ele>277.27223510373</ele>
        <time>2017-01-14T13:48:03Z</time>
      </trkpt>
      <trkpt lat="44.11961" lon="3.92911">
        <ele>267.49683164278</ele>
        <time>2017-01-14T13:48:15Z</time>
      </trkpt>
      <trkpt lat="44.11937" lon="3.92956">
        <ele>257.74435164899</ele>
        <time>2017-01-14T13:48:58Z</time>
      </trkpt>
      <trkpt lat="44.11911" lon="3.93012">
        <ele>248.15694713484</ele>
        <time>2017-01-14T13:49:25Z</time>
      </trkpt>
      <trkpt lat="44.11897" lon="3.93046">
        <ele>239.00898111019</ele>
        <time>2017-01-14T13:49:57Z</time>
      </trkpt>
      <trkpt lat="44.11895" lon="3.93057">
        <ele>239.00898111019</ele>
        <time>2017-01-14T13:49:57Z</time>
      </trkpt>
      <trkpt lat="44.11871" lon="3.93162">
        <ele>228.95279371716</ele>
        <time>2017-01-14T13:51:05Z</time>
      </trkpt>
      <trkpt lat="44.11846" lon="3.93296">
        <ele>218.38413268243</ele>
        <time>2017-01-14T13:52:34Z</time>
      </trkpt>
      <trkpt lat="44.11843" lon="3.93307">
        <ele>218.38413268243</ele>
        <time>2017-01-14T13:52:34Z</time>
      </trkpt>
      <trkpt lat="44.11841" lon="3.93316">
        <ele>208.66447234478</ele>
        <time>2017-01-14T13:52:50Z</time>
      </trkpt>
      <trkpt lat="44.11835" lon="3.93347">
        <ele>199.72606533002</ele>
        <time>2017-01-14T13:53:00Z</time>
      </trkpt>
      <trkpt lat="44.11831" lon="3.93373">
        <ele>191.5605968213</ele>
        <time>2017-01-14T13:53:19Z</time>
      </trkpt>
      <trkpt lat="44.11831" lon="3.93374">
        <ele>191.5605968213</ele>
        <time>2017-01-14T13:53:25Z</time>
      </trkpt>
      <trkpt lat="44.11832" lon="3.93382">
        <ele>191.5605968213</ele>
        <time>2017-01-14T13:53:55Z</time>
      </trkpt>
      <trkpt lat="44.11831" lon="3.93388">
        <ele>184.73365787001</ele>
        <time>2017-01-14T13:54:00Z</time>
      </trkpt>
      <trkpt lat="44.11829" lon="3.93394">
        <ele>184.73365787001</ele>
        <time>2017-01-14T13:54:05Z</time>
      </trkpt>
      <trkpt lat="44.11828" lon="3.93401">
        <ele>178.87109127474</ele>
        <time>2017-01-14T13:54:10Z</time>
      </trkpt>
      <trkpt lat="44.11822" lon="3.93444">
        <ele>173.27673029075</ele>
        <time>2017-01-14T13:54:42Z</time>
      </trkpt>
      <trkpt lat="44.11821" lon="3.9345">
        <ele>173.27673029075</ele>
        <time>2017-01-14T13:54:45Z</time>
      </trkpt>
      <trkpt lat="44.11815" lon="3.93471">
        <ele>168.25504732542</ele>
        <time>2017-01-14T13:55:00Z</time>
      </trkpt>
      <trkpt lat="44.118" lon="3.93544">
        <ele>163.14898225683</ele>
        <time>2017-01-14T13:55:40Z</time>
      </trkpt>
      <trkpt lat="44.11801" lon="3.93554">
        <ele>163.14898225683</ele>
        <time>2017-01-14T13:55:45Z</time>
      </trkpt>
      <trkpt lat="44.11795" lon="3.93576">
        <ele>158.31473426851</ele>
        <time>2017-01-14T13:56:02Z</time>
      </trkpt>
      <trkpt lat="44.11762" lon="3.93722">
        <ele>153.23057607355</ele>
        <time>2017-01-14T13:57:46Z</time>
      </trkpt>
      <trkpt lat="44.11762" lon="3.93728">
        <ele>153.23057607355</ele>
        <time>2017-01-14T13:57:50Z</time>
      </trkpt>
      <trkpt lat="44.11759" lon="3.93743">
        <ele>148.60923589298</ele>
        <time>2017-01-14T13:58:00Z</time>
      </trkpt>
      <trkpt lat="44.1176" lon="3.93744">
        <ele>148.60923589298</ele>
        <time>2017-01-14T13:58:05Z</time>
      </trkpt>
      <trkpt lat="44.11759" lon="3.93747">
        <ele>148.60923589298</ele>
        <time>2017-01-14T13:58:20Z</time>
      </trkpt>
      <trkpt lat="44.11758" lon="3.93753">
        <ele>148.60923589298</ele>
        <time>2017-01-14T13:58:25Z</time>
      </trkpt>
      <trkpt lat="44.11757" lon="3.93761">
        <ele>144.34535126182</ele>
        <time>2017-01-14T13:58:30Z</time>
      </trkpt>
      <trkpt lat="44.11755" lon="3.93767">
        <ele>144.34535126182</ele>
        <time>2017-01-14T13:58:35Z</time>
      </trkpt>
      <trkpt lat="44.11754" lon="3.93774">
        <ele>140.55586491974</ele>
        <time>2017-01-14T13:58:40Z</time>
      </trkpt>
      <trkpt lat="44.11752" lon="3.93781">
        <ele>140.55586491974</ele>
        <time>2017-01-14T13:58:45Z</time>
      </trkpt>
      <trkpt lat="44.11751" lon="3.93788">
        <ele>137.05902580535</ele>
        <time>2017-01-14T13:58:50Z</time>
      </trkpt>
      <trkpt lat="44.1175" lon="3.93796">
        <ele>137.05902580535</ele>
        <time>2017-01-14T13:58:55Z</time>
      </trkpt>
      <trkpt lat="44.11751" lon="3.93804">
        <ele>133.71393484107</ele>
        <time>2017-01-14T13:59:02Z</time>
      </trkpt>
      <trkpt lat="44.11754" lon="3.93858">
        <ele>129.66860941139</ele>
        <time>2017-01-14T13:59:36Z</time>
      </trkpt>
      <trkpt lat="44.1175" lon="3.93868">
        <ele>129.66860941139</ele>
        <time>2017-01-14T13:59:36Z</time>
      </trkpt>
      <trkpt lat="44.11597" lon="3.93997">
        <ele>127.79563897721</ele>
        <time>2017-01-14T14:01:50Z</time>
      </trkpt>
      <trkpt lat="44.11591" lon="3.93998">
        <ele>127.79563897721</ele>
        <time>2017-01-14T14:01:58Z</time>
      </trkpt>
      <trkpt lat="44.11576" lon="3.94">
        <ele>127.07531523368</ele>
        <time>2017-01-14T14:02:05Z</time>
      </trkpt>
      <trkpt lat="44.11475" lon="3.93987">
        <ele>128.79303446435</ele>
        <time>2017-01-14T14:03:15Z</time>
      </trkpt>
      <trkpt lat="44.11473" lon="3.93987">
        <ele>128.79303446435</ele>
        <time>2017-01-14T14:03:20Z</time>
      </trkpt>
      <trkpt lat="44.11471" lon="3.93987">
        <ele>128.79303446435</ele>
        <time>2017-01-14T14:03:25Z</time>
      </trkpt>
      <trkpt lat="44.11457" lon="3.93982">
        <ele>130.73167728935</ele>
        <time>2017-01-14T14:03:47Z</time>
      </trkpt>
      <trkpt lat="44.11435" lon="3.93963">
        <ele>132.99788295913</ele>
        <time>2017-01-14T14:03:55Z</time>
      </trkpt>
      <trkpt lat="44.11414" lon="3.93943">
        <ele>135.53093218408</ele>
        <time>2017-01-14T14:04:14Z</time>
      </trkpt>
      <trkpt lat="44.11287" lon="3.93914">
        <ele>137.79823962661</ele>
        <time>2017-01-14T14:05:45Z</time>
      </trkpt>
      <trkpt lat="44.1127" lon="3.93913">
        <ele>140.27269128877</ele>
        <time>2017-01-14T14:05:59Z</time>
      </trkpt>
      <trkpt lat="44.11269" lon="3.93913">
        <ele>140.27269128877</ele>
        <time>2017-01-14T14:06:02Z</time>
      </trkpt>
      <trkpt lat="44.11202" lon="3.93914">
        <ele>142.94523146568</ele>
        <time>2017-01-14T14:07:17Z</time>
      </trkpt>
      <trkpt lat="44.11175" lon="3.93939">
        <ele>145.74945123825</ele>
        <time>2017-01-14T14:07:17Z</time>
      </trkpt>
      <trkpt lat="44.11142" lon="3.93984">
        <ele>148.03283099358</ele>
        <time>2017-01-14T14:08:00Z</time>
      </trkpt>
      <trkpt lat="44.11136" lon="3.94012">
        <ele>150.41747694782</ele>
        <time>2017-01-14T14:08:20Z</time>
      </trkpt>
      <trkpt lat="44.11131" lon="3.94026">
        <ele>152.91780931462</ele>
        <time>2017-01-14T14:08:20Z</time>
      </trkpt>
      <trkpt lat="44.11142" lon="3.94083">
        <ele>155.14372406724</ele>
        <time>2017-01-14T14:08:57Z</time>
      </trkpt>
      <trkpt lat="44.1114" lon="3.94088">
        <ele>155.14372406724</ele>
        <time>2017-01-14T14:09:00Z</time>
      </trkpt>
      <trkpt lat="44.11141" lon="3.94092">
        <ele>155.14372406724</ele>
        <time>2017-01-14T14:09:05Z</time>
      </trkpt>
      <trkpt lat="44.11139" lon="3.94098">
        <ele>157.38344983985</ele>
        <time>2017-01-14T14:09:35Z</time>
      </trkpt>
      <trkpt lat="44.11138" lon="3.94106">
        <ele>157.38344983985</ele>
        <time>2017-01-14T14:09:40Z</time>
      </trkpt>
      <trkpt lat="44.11136" lon="3.94114">
        <ele>159.52975084563</ele>
        <time>2017-01-14T14:09:45Z</time>
      </trkpt>
      <trkpt lat="44.11135" lon="3.94118">
        <ele>159.52975084563</ele>
        <time>2017-01-14T14:09:50Z</time>
      </trkpt>
      <trkpt lat="44.11135" lon="3.94118">
        <ele>159.52975084563</ele>
        <time>2017-01-14T14:10:16Z</time>
      </trkpt>
      <trkpt lat="44.11134" lon="3.94118">
        <ele>159.52975084563</ele>
        <time>2017-01-14T14:10:33Z</time>
      </trkpt>
      <trkpt lat="44.11139" lon="3.94106">
        <ele>161.54163809225</ele>
        <time>2017-01-14T14:10:33Z</time>
      </trkpt>
      <trkpt lat="44.1116" lon="3.94123">
        <ele>163.6413958835</ele>
        <time>2017-01-14T14:11:17Z</time>
      </trkpt>
      <trkpt lat="44.11162" lon="3.94137">
        <ele>165.71819247449</ele>
        <time>2017-01-14T14:11:17Z</time>
      </trkpt>
      <trkpt lat="44.11165" lon="3.9415">
        <ele>167.7996217136</ele>
        <time>2017-01-14T14:11:34Z</time>
      </trkpt>
      <trkpt lat="44.1116" lon="3.94163">
        <ele>169.9261809069</ele>
        <time>2017-01-14T14:11:34Z</time>
      </trkpt>
      <trkpt lat="44.11158" lon="3.94204">
        <ele>172.12139763745</ele>
        <time>2017-01-14T14:12:00Z</time>
      </trkpt>
      <trkpt lat="44.11121" lon="3.943">
        <ele>174.42184102184</ele>
        <time>2017-01-14T14:13:24Z</time>
      </trkpt>
      <trkpt lat="44.11121" lon="3.94331">
        <ele>176.31403334638</ele>
        <time>2017-01-14T14:13:33Z</time>
      </trkpt>
      <trkpt lat="44.11105" lon="3.94364">
        <ele>177.95801130919</ele>
        <time>2017-01-14T14:13:55Z</time>
      </trkpt>
      <trkpt lat="44.11103" lon="3.94368">
        <ele>177.95801130919</ele>
        <time>2017-01-14T14:14:03Z</time>
      </trkpt>
      <trkpt lat="44.11089" lon="3.94376">
        <ele>179.48890095292</ele>
        <time>2017-01-14T14:14:22Z</time>
      </trkpt>
      <trkpt lat="44.11077" lon="3.94376">
        <ele>180.78778731662</ele>
        <time>2017-01-14T14:14:22Z</time>
      </trkpt>
      <trkpt lat="44.11048" lon="3.94411">
        <ele>181.99068116937</ele>
        <time>2017-01-14T14:15:25Z</time>
      </trkpt>
      <trkpt lat="44.10981" lon="3.9451">
        <ele>180.77451888214</ele>
        <time>2017-01-14T14:16:17Z</time>
      </trkpt>
      <trkpt lat="44.10977" lon="3.94516">
        <ele>180.77451888214</ele>
        <time>2017-01-14T14:16:17Z</time>
      </trkpt>
      <trkpt lat="44.10945" lon="3.94564">
        <ele>178.81313815549</ele>
        <time>2017-01-14T14:16:58Z</time>
      </trkpt>
      <trkpt lat="44.10942" lon="3.94579">
        <ele>176.8385671516</ele>
        <time>2017-01-14T14:16:58Z</time>
      </trkpt>
      <trkpt lat="44.10888" lon="3.94674">
        <ele>174.89546857341</ele>
        <time>2017-01-14T14:18:05Z</time>
      </trkpt>
      <trkpt lat="44.10853" lon="3.94702">
        <ele>173.27055110917</ele>
        <time>2017-01-14T14:18:35Z</time>
      </trkpt>
      <trkpt lat="44.10824" lon="3.94725">
        <ele>172.11367344994</ele>
        <time>2017-01-14T14:19:59Z</time>
      </trkpt>
      <trkpt lat="44.10755" lon="3.94782">
        <ele>171.11599086844</ele>
        <time>2017-01-14T14:20:00Z</time>
      </trkpt>
      <trkpt lat="44.10697" lon="3.9482">
        <ele>170.02005718421</ele>
        <time>2017-01-14T14:21:04Z</time>
      </trkpt>
      <trkpt lat="44.10616" lon="3.94852">
        <ele>169.65434820235</ele>
        <time>2017-01-14T14:22:05Z</time>
      </trkpt>
      <trkpt lat="44.10602" lon="3.94849">
        <ele>169.38684473767</ele>
        <time>2017-01-14T14:22:25Z</time>
      </trkpt>
      <trkpt lat="44.10591" lon="3.94858">
        <ele>169.07869721354</ele>
        <time>2017-01-14T14:22:25Z</time>
      </trkpt>
      <trkpt lat="44.10575" lon="3.94858">
        <ele>168.58721478869</ele>
        <time>2017-01-14T14:22:36Z</time>
      </trkpt>
      <trkpt lat="44.10463" lon="3.94859">
        <ele>168.37179985585</ele>
        <time>2017-01-14T14:24:08Z</time>
      </trkpt>
      <trkpt lat="44.10455" lon="3.94857">
        <ele>168.37179985585</ele>
        <time>2017-01-14T14:24:08Z</time>
      </trkpt>
      <trkpt lat="44.10395" lon="3.94833">
        <ele>167.77672525765</ele>
        <time>2017-01-14T14:25:00Z</time>
      </trkpt>
      <trkpt lat="44.10388" lon="3.94829">
        <ele>167.77672525765</ele>
        <time>2017-01-14T14:25:02Z</time>
      </trkpt>
      <trkpt lat="44.10342" lon="3.94812">
        <ele>166.70009757558</ele>
        <time>2017-01-14T14:25:39Z</time>
      </trkpt>
      <trkpt lat="44.10316" lon="3.94797">
        <ele>165.71196473875</ele>
        <time>2017-01-14T14:26:00Z</time>
      </trkpt>
      <trkpt lat="44.10311" lon="3.94795">
        <ele>165.71196473875</ele>
        <time>2017-01-14T14:26:08Z</time>
      </trkpt>
      <trkpt lat="44.10301" lon="3.94792">
        <ele>164.79280595705</ele>
        <time>2017-01-14T14:26:16Z</time>
      </trkpt>
      <trkpt lat="44.10224" lon="3.948">
        <ele>165.00533683982</ele>
        <time>2017-01-14T14:27:22Z</time>
      </trkpt>
      <trkpt lat="44.10214" lon="3.94799">
        <ele>165.38568016495</ele>
        <time>2017-01-14T14:27:22Z</time>
      </trkpt>
      <trkpt lat="44.10204" lon="3.94805">
        <ele>165.90510044716</ele>
        <time>2017-01-14T14:27:38Z</time>
      </trkpt>
      <trkpt lat="44.10209" lon="3.94807">
        <ele>165.90510044716</ele>
        <time>2017-01-14T14:27:45Z</time>
      </trkpt>
      <trkpt lat="44.1021" lon="3.94807">
        <ele>165.90510044716</ele>
        <time>2017-01-14T14:27:50Z</time>
      </trkpt>
      <trkpt lat="44.10173" lon="3.94807">
        <ele>164.89384635181</ele>
        <time>2017-01-14T14:29:08Z</time>
      </trkpt>
      <trkpt lat="44.10167" lon="3.94812">
        <ele>164.89384635181</ele>
        <time>2017-01-14T14:29:15Z</time>
      </trkpt>
      <trkpt lat="44.10153" lon="3.9482">
        <ele>163.92204291529</ele>
        <time>2017-01-14T14:30:00Z</time>
      </trkpt>
      <trkpt lat="44.10132" lon="3.94824">
        <ele>162.98895276298</ele>
        <time>2017-01-14T14:30:38Z</time>
      </trkpt>
      <trkpt lat="44.10126" lon="3.94825">
        <ele>162.98895276298</ele>
        <time>2017-01-14T14:30:38Z</time>
      </trkpt>
      <trkpt lat="44.10078" lon="3.94838">
        <ele>163.50617456751</ele>
        <time>2017-01-14T14:31:37Z</time>
      </trkpt>
      <trkpt lat="44.10059" lon="3.94842">
        <ele>164.25568934328</ele>
        <time>2017-01-14T14:31:59Z</time>
      </trkpt>
      <trkpt lat="44.10058" lon="3.94841">
        <ele>164.25568934328</ele>
        <time>2017-01-14T14:32:00Z</time>
      </trkpt>
      <trkpt lat="44.10021" lon="3.94869">
        <ele>166.28446811181</ele>
        <time>2017-01-14T14:32:55Z</time>
      </trkpt>
      <trkpt lat="44.10016" lon="3.94876">
        <ele>166.28446811181</ele>
        <time>2017-01-14T14:33:00Z</time>
      </trkpt>
      <trkpt lat="44.10013" lon="3.9488">
        <ele>168.46946144764</ele>
        <time>2017-01-14T14:33:05Z</time>
      </trkpt>
      <trkpt lat="44.1001" lon="3.94882">
        <ele>168.46946144764</ele>
        <time>2017-01-14T14:33:10Z</time>
      </trkpt>
      <trkpt lat="44.10009" lon="3.94883">
        <ele>168.46946144764</ele>
        <time>2017-01-14T14:33:15Z</time>
      </trkpt>
      <trkpt lat="44.10002" lon="3.94886">
        <ele>170.87943350073</ele>
        <time>2017-01-14T14:33:36Z</time>
      </trkpt>
      <trkpt lat="44.09975" lon="3.94901">
        <ele>173.3181729951</ele>
        <time>2017-01-14T14:34:00Z</time>
      </trkpt>
      <trkpt lat="44.0989" lon="3.9514">
        <ele>179.14906067166</ele>
        <time>2017-01-14T14:37:14Z</time>
      </trkpt>
      <trkpt lat="44.09889" lon="3.95233">
        <ele>184.70580933121</ele>
        <time>2017-01-14T14:38:00Z</time>
      </trkpt>
      <trkpt lat="44.09886" lon="3.95285">
        <ele>189.8204836723</ele>
        <time>2017-01-14T14:38:35Z</time>
      </trkpt>
      <trkpt lat="44.09881" lon="3.95291">
        <ele>189.8204836723</ele>
        <time>2017-01-14T14:38:40Z</time>
      </trkpt>
      <trkpt lat="44.09876" lon="3.95297">
        <ele>194.5406771892</ele>
        <time>2017-01-14T14:38:45Z</time>
      </trkpt>
      <trkpt lat="44.09873" lon="3.95299">
        <ele>194.5406771892</ele>
        <time>2017-01-14T14:38:50Z</time>
      </trkpt>
      <trkpt lat="44.09869" lon="3.95302">
        <ele>194.5406771892</ele>
        <time>2017-01-14T14:39:00Z</time>
      </trkpt>
      <trkpt lat="44.09863" lon="3.95312">
        <ele>198.69564979108</ele>
        <time>2017-01-14T14:39:00Z</time>
      </trkpt>
      <trkpt lat="44.09842" lon="3.95329">
        <ele>202.33078755844</ele>
        <time>2017-01-14T14:39:18Z</time>
      </trkpt>
      <trkpt lat="44.0984" lon="3.95332">
        <ele>202.33078755844</ele>
        <time>2017-01-14T14:39:20Z</time>
      </trkpt>
      <trkpt lat="44.09821" lon="3.9543">
        <ele>205.21604502117</ele>
        <time>2017-01-14T14:40:16Z</time>
      </trkpt>
      <trkpt lat="44.09821" lon="3.95432">
        <ele>205.21604502117</ele>
        <time>2017-01-14T14:40:20Z</time>
      </trkpt>
      <trkpt lat="44.09783" lon="3.95486">
        <ele>207.65944164337</ele>
        <time>2017-01-14T14:41:08Z</time>
      </trkpt>
      <trkpt lat="44.09774" lon="3.95493">
        <ele>209.74611679264</ele>
        <time>2017-01-14T14:41:08Z</time>
      </trkpt>
      <trkpt lat="44.09744" lon="3.95515">
        <ele>210.89330254798</ele>
        <time>2017-01-14T14:41:55Z</time>
      </trkpt>
      <trkpt lat="44.09716" lon="3.95527">
        <ele>211.70240207456</ele>
        <time>2017-01-14T14:42:00Z</time>
      </trkpt>
      <trkpt lat="44.09711" lon="3.95527">
        <ele>211.70240207456</ele>
        <time>2017-01-14T14:42:07Z</time>
      </trkpt>
      <trkpt lat="44.09707" lon="3.95529">
        <ele>211.14659678384</ele>
        <time>2017-01-14T14:42:30Z</time>
      </trkpt>
      <trkpt lat="44.097" lon="3.95528">
        <ele>211.14659678384</ele>
        <time>2017-01-14T14:42:37Z</time>
      </trkpt>
      <trkpt lat="44.09666" lon="3.95502">
        <ele>210.18080407327</ele>
        <time>2017-01-14T14:43:05Z</time>
      </trkpt>
      <trkpt lat="44.09615" lon="3.95433">
        <ele>209.08586126198</ele>
        <time>2017-01-14T14:44:08Z</time>
      </trkpt>
      <trkpt lat="44.09568" lon="3.95436">
        <ele>208.38189439428</ele>
        <time>2017-01-14T14:44:43Z</time>
      </trkpt>
      <trkpt lat="44.09566" lon="3.95439">
        <ele>208.38189439428</ele>
        <time>2017-01-14T14:44:45Z</time>
      </trkpt>
      <trkpt lat="44.09562" lon="3.95446">
        <ele>207.67077424608</ele>
        <time>2017-01-14T14:44:50Z</time>
      </trkpt>
      <trkpt lat="44.09558" lon="3.95453">
        <ele>207.67077424608</ele>
        <time>2017-01-14T14:44:55Z</time>
      </trkpt>
      <trkpt lat="44.09555" lon="3.9546">
        <ele>206.81431653361</ele>
        <time>2017-01-14T14:45:00Z</time>
      </trkpt>
      <trkpt lat="44.09551" lon="3.95468">
        <ele>206.81431653361</ele>
        <time>2017-01-14T14:45:05Z</time>
      </trkpt>
      <trkpt lat="44.09538" lon="3.95488">
        <ele>205.69938198266</ele>
        <time>2017-01-14T14:45:32Z</time>
      </trkpt>
      <trkpt lat="44.09528" lon="3.95507">
        <ele>204.39485203545</ele>
        <time>2017-01-14T14:45:32Z</time>
      </trkpt>
      <trkpt lat="44.09532" lon="3.95544">
        <ele>202.76335131125</ele>
        <time>2017-01-14T14:45:57Z</time>
      </trkpt>
      <trkpt lat="44.09555" lon="3.95617">
        <ele>200.82262683071</ele>
        <time>2017-01-14T14:47:00Z</time>
      </trkpt>
      <trkpt lat="44.0954" lon="3.95664">
        <ele>198.8061340636</ele>
        <time>2017-01-14T14:48:00Z</time>
      </trkpt>
      <trkpt lat="44.09534" lon="3.95666">
        <ele>198.8061340636</ele>
        <time>2017-01-14T14:48:23Z</time>
      </trkpt>
    </trkseg>
  </trk>
</gpx>